Data for 02/05/2016

Time Sea-Level Adjusted Pressure Absolute Pressure Temperature Relative Humidity Dew Point   
(mb) (inHg) (mb) (inHg) (C) (F) (%) (C) (F)
00:05 1025 30.27 854 25.22 -0.8 30.5 58 -8.2 17.3
00:10 1025 30.27 854 25.22 -0.8 30.6 56 -8.4 16.8
00:15 1025 30.27 854 25.22 -0.7 30.7 55 -8.6 16.5
00:20 1025 30.27 854 25.22 -0.7 30.7 56 -8.6 16.6
00:25 1025 30.27 854 25.22 -0.7 30.7 55 -8.7 16.3
00:30 1025 30.27 855 25.25 -0.6 30.9 53 -9.1 15.5
00:35 1025 30.27 855 25.25 -0.5 31.1 52 -9.3 15.3
00:40 1025 30.27 855 25.25 -0.4 31.2 52 -9.1 15.6
00:45 1025 30.27 855 25.25 -0.4 31.2 51 -9.3 15.3
00:50 1025 30.27 855 25.25 -0.4 31.2 52 -9.1 15.5
00:55 1025 30.27 855 25.25 -0.5 31.2 52 -9.1 15.7
01:00 1026 30.3 855 25.25 -0.6 31 53 -9 15.8
01:05 1026 30.3 855 25.25 -0.5 31.1 51 -9.3 15.2
01:10 1026 30.3 855 25.25 -0.5 31.2 53 -9 15.8
01:15 1026 30.3 855 25.25 -0.5 31.1 53 -9 15.8
01:20 1026 30.3 855 25.25 -0.6 30.9 54 -8.8 16.2
01:25 1026 30.3 855 25.25 -0.7 30.8 54 -8.9 15.9
01:30 1026 30.3 855 25.25 -0.7 30.7 56 -8.5 16.7
01:35 1026 30.3 855 25.25 -0.9 30.3 58 -8.3 17.1
01:40 1026 30.3 855 25.25 -1.1 30.1 58 -8.3 17.1
01:45 1026 30.3 855 25.25 -1.1 30 57 -8.6 16.6
01:50 1026 30.3 855 25.25 -1.1 30 57 -8.6 16.6
01:55 1026 30.3 855 25.25 -1.1 30 57 -8.6 16.6
02:00 1026 30.3 855 25.25 -1.1 30 57 -8.5 16.6
02:05 1026 30.3 855 25.25 -1.2 29.9 58 -8.4 16.8
02:10 1026 30.3 855 25.25 -1.2 29.8 58 -8.5 16.7
02:15 1026 30.3 855 25.25 -1.2 29.8 57 -8.7 16.3
02:20 1026 30.3 855 25.25 -1.2 29.8 56 -8.9 15.9
02:25 1026 30.3 855 25.25 -1.2 29.9 55 -9.1 15.6
02:30 1026 30.3 855 25.25 -1.1 30 54 -9.2 15.5
02:35 1026 30.3 855 25.25 -1.1 30 55 -9 15.7
02:40 1026 30.3 855 25.25 -1.1 29.9 56 -8.9 16
02:45 1026 30.3 855 25.25 -1.3 29.7 57 -8.7 16.3
02:50 1026 30.3 855 25.25 -1.3 29.6 54 -9.5 14.9
02:55 1026 30.3 855 25.25 -1.2 29.9 54 -9.3 15.2
03:00 1026 30.3 855 25.25 -1.2 29.9 53 -9.5 14.9
03:05 1026 30.3 855 25.25 -1.1 30 52 -9.7 14.6
03:10 1026 30.3 855 25.25 -1.1 30 53 -9.4 15.1
03:15 1026 30.3 855 25.25 -1.1 30 52 -9.7 14.6
03:20 1026 30.3 856 25.28 -1.1 30 53 -9.6 14.7
03:25 1026 30.3 856 25.28 -1.2 29.9 53 -9.7 14.6
03:30 1026 30.3 856 25.28 -1.2 29.8 53 -9.7 14.5
03:35 1026 30.3 856 25.28 -1.2 29.8 53 -9.8 14.4
03:40 1027 30.33 856 25.28 -1.3 29.7 52 -9.9 14.2
03:45 1027 30.33 856 25.28 -1.3 29.7 53 -9.7 14.6
03:50 1027 30.33 856 25.28 -1.4 29.6 54 -9.6 14.7
03:55 1027 30.33 856 25.28 -1.5 29.3 55 -9.4 15.1
04:00 1027 30.33 856 25.28 -1.8 28.8 56 -9.5 14.8
04:05 1027 30.33 856 25.28 -1.9 28.5 54 -10.1 13.9
04:10 1027 30.33 856 25.28 -2 28.3 54 -10.1 13.8
04:15 1027 30.33 856 25.28 -2.1 28.2 55 -10 14
04:20 1027 30.33 856 25.28 -2.2 28 56 -9.9 14.2
04:25 1027 30.33 856 25.28 -2.3 27.9 57 -9.6 14.8
04:30 1027 30.33 856 25.28 -2.4 27.8 58 -9.6 14.7
04:35 1027 30.33 856 25.28 -2.5 27.5 59 -9.4 15.1
04:40 1027 30.33 856 25.28 -2.5 27.4 59 -9.4 15.1
04:45 1027 30.33 856 25.28 -2.7 27.2 59 -9.5 14.8
04:50 1027 30.33 856 25.28 -2.8 27 59 -9.6 14.7
04:55 1027 30.33 856 25.28 -2.8 26.9 60 -9.6 14.7
05:00 1027 30.33 856 25.28 -2.8 26.9 59 -9.7 14.6
05:05 1027 30.33 856 25.28 -2.8 26.9 59 -9.7 14.5
05:10 1027 30.33 856 25.28 -2.8 27 59 -9.7 14.5
05:15 1027 30.33 856 25.28 -2.8 27 58 -9.8 14.3
05:20 1027 30.33 856 25.28 -2.9 26.8 58 -10 14.1
05:25 1027 30.33 856 25.28 -3 26.6 58 -10.1 13.8
05:30 1027 30.33 856 25.28 -3.1 26.4 58 -10.3 13.4
05:35 1027 30.33 856 25.28 -3.3 26.1 57 -10.7 12.8
05:40 1027 30.33 856 25.28 -3.3 26 56 -10.8 12.5
05:45 1027 30.33 856 25.28 -3.4 25.9 55 -11.1 12
05:50 1027 30.33 856 25.28 -3.7 25.4 55 -11.4 11.5
05:55 1027 30.33 856 25.28 -4 24.8 56 -11.5 11.4
06:00 1027 30.33 857 25.31 -4.4 24.1 57 -11.6 11
06:05 1027 30.33 857 25.31 -4.9 23.1 58 -11.9 10.6
06:10 1027 30.33 857 25.31 -5.3 22.5 59 -12.2 10.1
06:15 1027 30.33 857 25.31 -5.4 22.4 58 -12.3 9.8
06:20 1027 30.33 856 25.28 -4.9 23.2 57 -12.1 10.1
06:25 1027 30.33 856 25.28 -4.5 23.9 56 -12.1 10.3
06:30 1027 30.33 856 25.28 -4 24.8 53 -12.2 10.1
06:35 1027 30.33 857 25.31 -3.8 25.2 53 -12.1 10.3
06:40 1027 30.33 857 25.31 -3.8 25.1 53 -12 10.4
06:45 1027 30.33 857 25.31 -3.8 25.1 52 -12.2 10
06:50 1027 30.33 857 25.31 -3.8 25.2 52 -12.2 10.1
06:55 1027 30.33 857 25.31 -3.5 25.8 51 -12.3 9.9
07:00 1027 30.33 857 25.31 -3.1 26.4 50 -12.1 10.2
07:05 1027 30.33 857 25.31 -3.1 26.5 51 -12 10.5
07:10 1027 30.33 857 25.31 -3.3 26 52 -11.9 10.6
07:15 1027 30.33 857 25.31 -3.2 26.2 50 -12.1 10.2
07:20 1027 30.33 857 25.31 -3.1 26.5 51 -11.9 10.5
07:25 1028 30.36 857 25.31 -3 26.6 51 -11.9 10.7
07:30 1028 30.36 857 25.31 -3.2 26.2 52 -11.8 10.8
07:35 1028 30.36 857 25.31 -3.5 25.6 53 -11.8 10.8
07:40 1028 30.36 857 25.31 -3.9 25 55 -11.7 10.9
07:45 1028 30.36 857 25.31 -4.2 24.4 56 -11.8 10.8
07:50 1028 30.36 857 25.31 -4.8 23.4 57 -12 10.4
07:55 1028 30.36 857 25.31 -5.2 22.6 58 -12.3 9.9
08:00 1028 30.36 857 25.31 -5.5 22.2 59 -12.2 10.1
08:05 1028 30.36 857 25.31 -6.4 20.4 62 -12.6 9.3
08:10 1028 30.36 857 25.31 -5.9 21.3 61 -12.2 10
08:15 1028 30.36 857 25.31 -5.6 22 60 -12.2 10
08:20 1028 30.36 857 25.31 -5.8 21.6 60 -12.3 9.9
08:25 1028 30.36 857 25.31 -6 21.2 62 -12.2 10
08:30 1028 30.36 857 25.31 -5.7 21.8 61 -12 10.4
08:35 1028 30.36 857 25.31 -5.3 22.4 59 -12.2 10.1
08:40 1028 30.36 857 25.31 -4.9 23.1 57 -12.2 10.1
08:45 1028 30.36 857 25.31 -5.4 22.3 60 -12.1 10.2
08:50 1028 30.36 857 25.31 -5.7 21.7 62 -11.9 10.5
08:55 1028 30.36 857 25.31 -5.4 22.4 57 -12.5 9.4
09:00 1028 30.36 857 25.31 -4.5 24 52 -12.9 8.9
09:05 1028 30.36 857 25.31 -3.8 25.1 52 -12.3 9.9
09:10 1028 30.36 857 25.31 -3.5 25.7 50 -12.5 9.5
09:15 1028 30.36 857 25.31 -3.4 25.8 51 -12.1 10.2
09:20 1028 30.36 857 25.31 -3.6 25.5 53 -12 10.5
09:25 1028 30.36 857 25.31 -4.3 24.2 56 -11.9 10.6
09:30 1028 30.36 857 25.31 -5.2 22.7 58 -12.3 9.9
09:35 1028 30.36 857 25.31 -5.3 22.4 58 -12.4 9.7
09:40 1028 30.36 857 25.31 -5.3 22.4 58 -12.4 9.7
09:45 1028 30.36 857 25.31 -5.2 22.7 57 -12.5 9.6
09:50 1028 30.36 857 25.31 -5 23.1 55 -12.7 9.2
09:55 1028 30.36 857 25.31 -4.2 24.4 53 -12.4 9.7
10:00 1028 30.36 857 25.31 -3.7 25.4 52 -12.2 10.1
10:05 1028 30.36 857 25.31 -3.3 26.1 50 -12.2 10
10:10 1028 30.36 857 25.31 -3 26.6 51 -11.8 10.7
10:15 1028 30.36 857 25.31 -2.5 27.5 48 -12.2 10.1
10:20 1028 30.36 857 25.31 -2.2 28.1 46 -12.2 10
10:25 1028 30.36 857 25.31 -2.2 28.1 48 -11.9 10.6
10:30 1028 30.36 857 25.31 -2 28.4 47 -11.8 10.8
10:35 1028 30.36 857 25.31 -1.7 29 46 -11.8 10.7
10:40 1028 30.36 857 25.31 -1 30.2 45 -11.6 11.2
10:45 1028 30.36 857 25.31 -0.5 31.1 43 -11.7 10.9
10:50 1028 30.36 857 25.31 -0.2 31.6 42 -11.5 11.3
10:55 1028 30.36 857 25.31 -0.5 31.1 43 -11.5 11.3
11:00 1028 30.36 857 25.31 -0.5 31.1 43 -11.5 11.3
11:05 1028 30.36 857 25.31 -0.1 31.8 42 -11.7 10.9
11:10 1028 30.36 857 25.31 -0.2 31.6 42 -11.6 11.2
11:15 1028 30.36 857 25.31 -0.1 31.8 42 -11.7 11
11:20 1028 30.36 857 25.31 1.1 34 37 -12.1 10.1
11:25 1028 30.36 857 25.31 1.4 34.4 37 -11.7 10.9
11:30 1028 30.36 857 25.31 0.9 33.6 38 -11.7 10.9
11:35 1028 30.36 857 25.31 0.4 32.7 40 -11.7 10.9
11:40 1028 30.36 857 25.31 -0.1 31.8 41 -11.9 10.6
11:45 1028 30.36 857 25.31 -0.3 31.4 42 -11.8 10.8
11:50 1028 30.36 857 25.31 -0.5 31.1 41 -12.1 10.2
11:55 1028 30.36 857 25.31 0 32.1 42 -11.3 11.6
12:00 1028 30.36 857 25.31 0.7 33.3 40 -11.5 11.2
12:05 1028 30.36 857 25.31 0.6 33.1 40 -11.4 11.4
12:10 1028 30.36 857 25.31 0.3 32.5 40 -11.8 10.8
12:15 1028 30.36 857 25.31 0.5 32.8 42 -11.1 11.9
12:20 1028 30.36 857 25.31 0.3 32.6 41 -11.6 11.2
12:25 1028 30.36 857 25.31 0 32 43 -11.2 11.8
12:30 1028 30.36 857 25.31 0.1 32.1 43 -11 12.3
12:35 1028 30.36 857 25.31 0 32 43 -11.2 11.8
12:40 1027 30.33 857 25.31 -0 31.9 43 -11.1 12
12:45 1027 30.33 857 25.31 0.2 32.4 44 -10.7 12.8
12:50 1027 30.33 857 25.31 0.6 33 41 -11.3 11.7
12:55 1027 30.33 857 25.31 1.1 34 40 -10.9 12.4
13:00 1027 30.33 856 25.28 1.4 34.5 40 -10.6 12.8
13:05 1027 30.33 856 25.28 1.6 34.9 40 -10.5 13.1
13:10 1027 30.33 856 25.28 2 35.5 40 -10.3 13.4
13:15 1027 30.33 856 25.28 1.1 34 41 -10.7 12.7
13:20 1027 30.33 856 25.28 1.5 34.7 40 -10.6 12.9
13:25 1027 30.33 856 25.28 1.7 35.1 39 -10.9 12.4
13:30 1027 30.33 856 25.28 1.6 34.9 43 -9.8 14.4
13:35 1027 30.33 856 25.28 1.2 34.1 43 -10 14
13:40 1027 30.33 856 25.28 1.1 34 41 -10.7 12.7
13:45 1027 30.33 856 25.28 1.8 35.3 39 -10.8 12.5
13:50 1027 30.33 856 25.28 2.2 35.9 39 -10.5 13.2
13:55 1027 30.33 856 25.28 2.8 37.1 37 -10.6 12.9
14:00 1027 30.33 856 25.28 3.4 38.1 36 -10.4 13.2
14:05 1027 30.33 856 25.28 3.7 38.6 35 -10.6 13
14:10 1027 30.33 856 25.28 4 39.1 33 -10.8 12.5
14:15 1026 30.3 856 25.28 4.2 39.6 35 -10.1 13.9
14:20 1026 30.3 856 25.28 4.2 39.6 35 -9.9 14.2
14:25 1026 30.3 856 25.28 4.4 39.9 35 -9.8 14.4
14:30 1026 30.3 856 25.28 4.5 40.1 38 -8.8 16.1
14:35 1026 30.3 855 25.25 4.6 40.3 35 -9.5 15
14:40 1026 30.3 855 25.25 4 39.2 36 -9.6 14.8
14:45 1026 30.3 855 25.25 3.3 38 38 -9.7 14.6
14:50 1026 30.3 855 25.25 3.1 37.5 35 -10.9 12.4
14:55 1026 30.3 855 25.25 4.5 40.1 33 -10.4 13.2
15:00 1026 30.3 855 25.25 5.1 41.2 33 -10.1 13.9
15:05 1026 30.3 855 25.25 5.4 41.6 31 -10.3 13.4
15:10 1026 30.3 855 25.25 5.3 41.5 32 -10 14
15:15 1026 30.3 855 25.25 5 41 34 -9.5 14.8
15:20 1026 30.3 855 25.25 4.9 40.8 33 -10.3 13.5
15:25 1026 30.3 855 25.25 5 41.1 33 -10.1 13.8
15:30 1026 30.3 855 25.25 5.4 41.7 32 -10 14
15:35 1026 30.3 855 25.25 6 42.8 31 -9.7 14.6
15:40 1026 30.3 855 25.25 6.1 42.9 32 -9.5 15
15:45 1026 30.3 855 25.25 6.2 43.1 31 -9.5 14.8
15:50 1026 30.3 855 25.25 5.9 42.7 32 -9.4 15.1
15:55 1026 30.3 855 25.25 5.7 42.3 33 -9.4 15.1
16:00 1026 30.3 855 25.25 5.5 41.9 33 -9.4 15
16:05 1026 30.3 855 25.25 5.1 41.3 34 -9.4 15
16:10 1026 30.3 855 25.25 5 41 35 -9.3 15.2
16:15 1026 30.3 855 25.25 5.2 41.3 34 -9.5 14.8
16:20 1026 30.3 855 25.25 5 41.1 37 -8.6 16.5
16:25 1025 30.27 855 25.25 5.1 41.1 35 -9.2 15.5
16:30 1025 30.27 855 25.25 4.9 40.9 35 -9.2 15.4
16:35 1025 30.27 855 25.25 5.3 41.6 34 -9.3 15.2
16:40 1025 30.27 855 25.25 5.5 41.9 34 -9.3 15.3
16:45 1025 30.27 855 25.25 5.6 42.1 35 -8.9 16
16:50 1025 30.27 855 25.25 5.4 41.7 35 -8.7 16.4
16:55 1025 30.27 854 25.22 5.6 42.2 35 -8.7 16.3
17:00 1025 30.27 855 25.25 5.7 42.3 34 -8.9 15.9
17:05 1025 30.27 854 25.22 5.6 42.1 35 -8.7 16.4
17:10 1025 30.27 854 25.22 5.7 42.2 35 -8.5 16.8
17:15 1025 30.27 854 25.22 5.7 42.2 35 -8.5 16.8
17:20 1025 30.27 855 25.25 5.7 42.3 35 -8.5 16.6
17:25 1025 30.27 854 25.22 5.7 42.2 35 -8.7 16.4
17:30 1025 30.27 854 25.22 5.4 41.7 36 -8.4 16.9
17:35 1025 30.27 854 25.22 5 40.9 37 -8.6 16.5
17:40 1025 30.27 854 25.22 4.9 40.8 36 -8.8 16.1
17:45 1025 30.27 854 25.22 5 41 36 -8.9 15.9
17:50 1025 30.27 854 25.22 5.2 41.4 35 -9.1 15.7
17:55 1025 30.27 854 25.22 5.3 41.6 35 -8.9 16
18:00 1025 30.27 854 25.22 5 41 36 -8.7 16.4
18:05 1025 30.27 854 25.22 4.9 40.7 37 -8.6 16.6
18:10 1025 30.27 854 25.22 4.3 39.7 40 -8.2 17.2
18:15 1025 30.27 854 25.22 4.1 39.5 39 -8.5 16.7
18:20 1025 30.27 854 25.22 4 39.3 40 -8.5 16.8
18:25 1025 30.27 854 25.22 4 39.3 40 -8.4 16.8
18:30 1025 30.27 854 25.22 3.9 38.9 41 -8.1 17.4
18:35 1025 30.27 854 25.22 3.5 38.3 44 -7.7 18.1
18:40 1025 30.27 854 25.22 3.2 37.7 44 -8 17.6
18:45 1025 30.27 854 25.22 3 37.4 44 -8.1 17.5
18:50 1025 30.27 854 25.22 2.8 37 46 -7.8 17.9
18:55 1025 30.27 854 25.22 2.6 36.7 46 -7.8 17.9
19:00 1025 30.27 854 25.22 2.4 36.3 48 -7.5 18.5
19:05 1025 30.27 854 25.22 2 35.5 49 -7.8 18
19:10 1025 30.27 854 25.22 1.9 35.4 48 -7.9 17.8
19:15 1025 30.27 854 25.22 1.8 35.2 49 -7.9 17.7
19:20 1025 30.27 854 25.22 1.8 35.2 48 -8 17.7
19:25 1024 30.24 854 25.22 1.9 35.4 48 -8 17.5
19:30 1024 30.24 854 25.22 2 35.5 47 -8.1 17.3
19:35 1024 30.24 854 25.22 2 35.7 48 -7.8 18
19:40 1025 30.27 854 25.22 1.5 34.8 51 -7.6 18.4
19:45 1025 30.27 854 25.22 0.7 33.3 52 -7.9 17.7
19:50 1024 30.24 854 25.22 0.6 33.1 52 -8.1 17.5
19:55 1024 30.24 854 25.22 0.4 32.7 53 -8.1 17.5
20:00 1024 30.24 854 25.22 0.5 32.9 52 -8.2 17.2
20:05 1024 30.24 854 25.22 0.8 33.5 52 -8 17.7
20:10 1024 30.24 854 25.22 0.9 33.6 52 -8 17.7
20:15 1024 30.24 854 25.22 1.2 34.2 50 -8 17.6
20:20 1024 30.24 854 25.22 1.3 34.3 50 -8.1 17.4
20:25 1024 30.24 854 25.22 1.3 34.4 49 -8.1 17.4
20:30 1024 30.24 854 25.22 1.7 35 48 -8.3 17
20:35 1024 30.24 853 25.19 2 35.6 47 -8.1 17.4
20:40 1024 30.24 853 25.19 2 35.6 47 -8 17.5
20:45 1024 30.24 853 25.19 2 35.6 48 -7.9 17.8
20:50 1024 30.24 853 25.19 1.9 35.5 47 -8.1 17.4
20:55 1024 30.24 853 25.19 2 35.6 48 -7.9 17.9
21:00 1024 30.24 854 25.22 1.8 35.3 49 -7.7 18.1
21:05 1024 30.24 854 25.22 1.6 35 49 -7.9 17.8
21:10 1024 30.24 854 25.22 1.5 34.8 50 -7.7 18.1
21:15 1024 30.24 854 25.22 1.4 34.6 51 -7.7 18.1
21:20 1024 30.24 853 25.19 1.4 34.5 51 -7.7 18.1
21:25 1024 30.24 853 25.19 1.3 34.4 51 -7.7 18.1
21:30 1024 30.24 853 25.19 1.3 34.4 51 -7.8 18
21:35 1024 30.24 853 25.19 1.2 34.2 53 -7.5 18.6
21:40 1024 30.24 853 25.19 0.4 32.8 54 -7.8 18
21:45 1024 30.24 853 25.19 -0.8 30.6 57 -8.2 17.3
21:50 1024 30.24 853 25.19 -0.6 30.9 57 -8.1 17.5
21:55 1024 30.24 853 25.19 -0.6 31 56 -8.3 17.1
22:00 1024 30.24 853 25.19 -0.3 31.5 55 -8.3 17.1
22:05 1024 30.24 853 25.19 0.3 32.6 52 -8.5 16.7
22:10 1024 30.24 853 25.19 0.6 33.1 52 -8.1 17.3
22:15 1024 30.24 853 25.19 0.6 33 52 -8.2 17.3
22:20 1024 30.24 853 25.19 0.4 32.7 53 -8.2 17.3
22:25 1024 30.24 853 25.19 0.2 32.4 53 -8.2 17.2
22:30 1024 30.24 853 25.19 0.1 32.1 53 -8.4 16.8
22:35 1024 30.24 853 25.19 -0.2 31.6 55 -8.2 17.3
22:40 1024 30.24 853 25.19 -1 30.1 56 -8.7 16.4
22:45 1024 30.24 853 25.19 -0.8 30.6 56 -8.4 16.9
22:50 1024 30.24 853 25.19 -0.6 30.9 55 -8.6 16.5
22:55 1024 30.24 853 25.19 -0.3 31.5 54 -8.4 16.9
23:00 1024 30.24 853 25.19 -0.3 31.5 55 -8.3 17
23:05 1024 30.24 853 25.19 -0.3 31.5 54 -8.5 16.8
23:10 1024 30.24 853 25.19 -0.4 31.4 55 -8.2 17.2
23:15 1024 30.24 853 25.19 -0.7 30.8 56 -8.4 17
23:20 1024 30.24 853 25.19 -1.3 29.7 59 -8.4 16.9
23:25 1024 30.24 853 25.19 -1.6 29 60 -8.5 16.7
23:30 1024 30.24 853 25.19 -1.5 29.2 59 -8.6 16.5
23:35 1024 30.24 853 25.19 -1.4 29.5 58 -8.5 16.7
23:40 1024 30.24 853 25.19 -1.4 29.4 59 -8.4 16.9
23:45 1024 30.24 853 25.19 -1.7 29 60 -8.4 16.9
23:50 1024 30.24 853 25.19 -1.8 28.7 61 -8.5 16.7
23:55 1023 30.21 853 25.19 -2 28.3 61 -8.5 16.7
24:00 1023 30.21 853 25.19 -2.3 27.8 63 -8.5 16.6